sensor_id;sensor_type;location;lat;lon;timestamp;noise_LAeq;noise_LA_min;noise_LA_max;noise_LA01;noise_LA95
66589;Laerm;53447;49.272;11.070;2023-02-12T00:02:15;38.57;33.51;42.77;;
66589;Laerm;53447;49.272;11.070;2023-02-12T00:04:40;38.36;33.19;48.15;;
66589;Laerm;53447;49.272;11.070;2023-02-12T00:07:06;38.89;34.16;41.94;;
66589;Laerm;53447;49.272;11.070;2023-02-12T00:09:31;41.86;35.62;47.99;;
66589;Laerm;53447;49.272;11.070;2023-02-12T00:11:58;38.19;33.19;41.69;;
66589;Laerm;53447;49.272;11.070;2023-02-12T00:14:23;38.19;33.19;41.32;;
66589;Laerm;53447;49.272;11.070;2023-02-12T00:16:49;38.40;32.40;41.54;;
66589;Laerm;53447;49.272;11.070;2023-02-12T00:19:14;41.17;34.95;46.65;;
66589;Laerm;53447;49.272;11.070;2023-02-12T00:21:39;38.41;33.19;41.59;;
66589;Laerm;53447;49.272;11.070;2023-02-12T00:24:05;38.16;31.94;41.79;;
66589;Laerm;53447;49.272;11.070;2023-02-12T00:26:30;38.10;32.81;41.59;;
66589;Laerm;53447;49.272;11.070;2023-02-12T00:28:55;37.67;32.40;41.09;;
66589;Laerm;53447;49.272;11.070;2023-02-12T00:31:22;37.90;31.43;41.26;;
66589;Laerm;53447;49.272;11.070;2023-02-12T00:33:48;38.09;32.81;41.69;;
66589;Laerm;53447;49.272;11.070;2023-02-12T00:36:15;38.35;32.81;41.43;;
66589;Laerm;53447;49.272;11.070;2023-02-12T00:38:40;38.27;32.81;41.74;;
66589;Laerm;53447;49.272;11.070;2023-02-12T00:41:06;38.02;33.54;41.32;;
66589;Laerm;53447;49.272;11.070;2023-02-12T00:43:32;38.03;33.19;41.15;;
66589;Laerm;53447;49.272;11.070;2023-02-12T00:45:57;38.00;32.81;41.19;;
66589;Laerm;53447;49.272;11.070;2023-02-12T00:48:22;37.83;33.19;48.19;;
66589;Laerm;53447;49.272;11.070;2023-02-12T00:50:48;37.56;32.40;41.59;;
66589;Laerm;53447;49.272;11.070;2023-02-12T00:53:14;37.60;31.94;40.85;;
66589;Laerm;53447;49.272;11.070;2023-02-12T00:55:39;38.20;31.43;41.69;;
66589;Laerm;53447;49.272;11.070;2023-02-12T00:58:05;38.11;31.94;42.18;;
66589;Laerm;53447;49.272;11.070;2023-02-12T01:00:30;38.83;32.81;45.02;;
66589;Laerm;53447;49.272;11.070;2023-02-12T01:02:55;37.89;31.43;41.09;;
66589;Laerm;53447;49.272;11.070;2023-02-12T01:05:20;38.26;31.94;41.94;;
66589;Laerm;53447;49.272;11.070;2023-02-12T01:07:50;37.93;32.40;42.44;;
66589;Laerm;53447;49.272;11.070;2023-02-12T01:10:19;37.68;32.40;46.05;;
66589;Laerm;53447;49.272;11.070;2023-02-12T01:12:45;37.45;30.85;41.03;;
66589;Laerm;53447;49.272;11.070;2023-02-12T01:15:11;37.87;32.81;41.15;;
66589;Laerm;53447;49.272;11.070;2023-02-12T01:17:36;37.63;32.81;40.85;;
66589;Laerm;53447;49.272;11.070;2023-02-12T01:20:02;38.43;32.81;43.01;;
66589;Laerm;53447;49.272;11.070;2023-02-12T01:22:29;38.13;32.40;41.48;;
66589;Laerm;53447;49.272;11.070;2023-02-12T01:24:55;39.58;32.40;46.57;;
66589;Laerm;53447;49.272;11.070;2023-02-12T01:27:20;37.79;31.94;46.36;;
66589;Laerm;53447;49.272;11.070;2023-02-12T01:29:45;38.23;33.19;42.89;;
66589;Laerm;53447;49.272;11.070;2023-02-12T01:32:11;38.19;32.40;45.96;;
66589;Laerm;53447;49.272;11.070;2023-02-12T01:34:36;40.28;33.19;47.77;;
66589;Laerm;53447;49.272;11.070;2023-02-12T01:37:02;41.59;37.45;43.39;;
66589;Laerm;53447;49.272;11.070;2023-02-12T01:39:27;41.53;37.84;43.47;;
66589;Laerm;53447;49.272;11.070;2023-02-12T01:41:55;41.41;36.02;43.26;;
66589;Laerm;53447;49.272;11.070;2023-02-12T01:44:21;39.64;33.19;43.57;;
66589;Laerm;53447;49.272;11.070;2023-02-12T01:46:57;37.79;32.40;41.21;;
66589;Laerm;53447;49.272;11.070;2023-02-12T01:49:25;37.52;31.94;41.09;;
66589;Laerm;53447;49.272;11.070;2023-02-12T01:51:54;37.60;30.85;41.64;;
66589;Laerm;53447;49.272;11.070;2023-02-12T01:54:21;37.89;30.85;42.31;;
66589;Laerm;53447;49.272;11.070;2023-02-12T01:56:49;37.88;31.94;43.19;;
66589;Laerm;53447;49.272;11.070;2023-02-12T01:59:15;37.83;32.40;42.22;;
66589;Laerm;53447;49.272;11.070;2023-02-12T02:01:41;38.25;33.19;42.65;;
66589;Laerm;53447;49.272;11.070;2023-02-12T02:04:11;37.78;30.85;41.26;;
66589;Laerm;53447;49.272;11.070;2023-02-12T02:06:41;37.87;32.40;41.48;;
66589;Laerm;53447;49.272;11.070;2023-02-12T02:09:09;38.17;32.81;41.54;;
66589;Laerm;53447;49.272;11.070;2023-02-12T02:11:35;40.11;31.94;53.26;;
66589;Laerm;53447;49.272;11.070;2023-02-12T02:14:19;42.59;38.42;52.33;;
66589;Laerm;53447;49.272;11.070;2023-02-12T02:24:53;37.88;32.40;41.03;;
66589;Laerm;53447;49.272;11.070;2023-02-12T02:32:31;38.31;33.19;41.32;;
66589;Laerm;53447;49.272;11.070;2023-02-12T02:37:26;42.69;35.41;54.55;;
66589;Laerm;53447;49.272;11.070;2023-02-12T02:39:56;38.13;33.19;42.27;;
66589;Laerm;53447;49.272;11.070;2023-02-12T02:42:28;38.25;33.19;46.09;;
66589;Laerm;53447;49.272;11.070;2023-02-12T02:44:58;38.20;32.81;41.21;;
66589;Laerm;53447;49.272;11.070;2023-02-12T02:47:34;41.50;34.70;43.67;;
66589;Laerm;53447;49.272;11.070;2023-02-12T02:50:06;41.30;32.81;43.23;;
66589;Laerm;53447;49.272;11.070;2023-02-12T02:52:36;37.94;30.18;41.21;;
66589;Laerm;53447;49.272;11.070;2023-02-12T02:55:06;38.21;32.81;41.32;;
66589;Laerm;53447;49.272;11.070;2023-02-12T02:57:44;38.05;32.81;41.15;;
66589;Laerm;53447;49.272;11.070;2023-02-12T03:02:39;40.69;32.81;47.96;;
66589;Laerm;53447;49.272;11.070;2023-02-12T03:05:23;39.13;32.81;42.93;;
66589;Laerm;53447;49.272;11.070;2023-02-12T03:10:35;37.44;31.94;40.46;;
66589;Laerm;53447;49.272;11.070;2023-02-12T03:13:17;39.14;31.94;50.94;;
66589;Laerm;53447;49.272;11.070;2023-02-12T03:15:50;41.57;37.84;43.47;;
66589;Laerm;53447;49.272;11.070;2023-02-12T03:18:25;40.52;30.18;43.33;;
66589;Laerm;53447;49.272;11.070;2023-02-12T03:20:54;37.61;31.94;40.72;;
66589;Laerm;53447;49.272;11.070;2023-02-12T03:23:26;37.53;32.40;40.79;;
66589;Laerm;53447;49.272;11.070;2023-02-12T03:25:56;37.42;30.85;40.72;;
66589;Laerm;53447;49.272;11.070;2023-02-12T03:28:26;37.71;31.94;41.69;;
66589;Laerm;53447;49.272;11.070;2023-02-12T03:30:56;37.28;29.39;45.23;;
66589;Laerm;53447;49.272;11.070;2023-02-12T03:33:36;37.69;30.85;41.64;;
66589;Laerm;53447;49.272;11.070;2023-02-12T03:36:08;37.75;30.85;41.54;;
66589;Laerm;53447;49.272;11.070;2023-02-12T03:38:38;37.25;31.43;40.66;;
66589;Laerm;53447;49.272;11.070;2023-02-12T03:51:24;38.05;31.43;42.22;;
66589;Laerm;53447;49.272;11.070;2023-02-12T03:53:53;37.10;30.18;43.54;;
66589;Laerm;53447;49.272;11.070;2023-02-12T03:56:21;37.32;30.85;42.27;;
66589;Laerm;53447;49.272;11.070;2023-02-12T03:58:48;37.15;29.39;40.59;;
66589;Laerm;53447;49.272;11.070;2023-02-12T04:01:13;37.85;31.43;42.36;;
66589;Laerm;53447;49.272;11.070;2023-02-12T04:03:38;37.98;32.40;41.09;;
66589;Laerm;53447;49.272;11.070;2023-02-12T04:06:04;39.88;31.43;44.65;;
66589;Laerm;53447;49.272;11.070;2023-02-12T04:08:30;39.89;33.54;43.61;;
66589;Laerm;53447;49.272;11.070;2023-02-12T04:11:06;38.67;31.43;43.64;;
66589;Laerm;53447;49.272;11.070;2023-02-12T04:13:41;42.03;37.58;44.55;;
66589;Laerm;53447;49.272;11.070;2023-02-12T04:16:19;41.74;37.96;43.73;;
66589;Laerm;53447;49.272;11.070;2023-02-12T04:18:46;39.20;31.43;43.15;;
66589;Laerm;53447;49.272;11.070;2023-02-12T04:24:12;39.16;30.85;43.92;;
66589;Laerm;53447;49.272;11.070;2023-02-12T04:27:04;41.12;34.70;43.90;;
66589;Laerm;53447;49.272;11.070;2023-02-12T04:32:11;41.32;33.86;46.98;;
66589;Laerm;53447;49.272;11.070;2023-02-12T04:34:43;40.51;33.19;44.13;;
66589;Laerm;53447;49.272;11.070;2023-02-12T04:37:44;43.24;37.17;50.97;;
66589;Laerm;53447;49.272;11.070;2023-02-12T04:40:06;41.55;35.82;44.53;;
66589;Laerm;53447;49.272;11.070;2023-02-12T04:42:40;38.54;31.94;43.26;;
66589;Laerm;53447;49.272;11.070;2023-02-12T04:45:06;40.08;33.19;44.10;;
66589;Laerm;53447;49.272;11.070;2023-02-12T04:47:33;40.65;33.19;43.47;;
66589;Laerm;53447;49.272;11.070;2023-02-12T04:49:58;41.44;37.71;43.26;;
66589;Laerm;53447;49.272;11.070;2023-02-12T04:52:23;41.87;38.42;44.27;;
66589;Laerm;53447;49.272;11.070;2023-02-12T04:54:48;39.57;34.16;43.37;;
66589;Laerm;53447;49.272;11.070;2023-02-12T04:57:14;40.99;34.44;43.77;;
66589;Laerm;53447;49.272;11.070;2023-02-12T04:59:40;42.63;34.70;52.25;;
66589;Laerm;53447;49.272;11.070;2023-02-12T05:02:05;45.90;40.32;55.28;;
66589;Laerm;53447;49.272;11.070;2023-02-12T05:04:31;42.25;34.95;51.42;;
66589;Laerm;53447;49.272;11.070;2023-02-12T05:06:56;39.56;33.19;43.47;;
66589;Laerm;53447;49.272;11.070;2023-02-12T05:09:21;38.05;31.43;51.55;;
66589;Laerm;53447;49.272;11.070;2023-02-12T05:11:47;39.30;31.94;43.70;;
66589;Laerm;53447;49.272;11.070;2023-02-12T05:14:12;40.60;33.54;48.95;;
66589;Laerm;53447;49.272;11.070;2023-02-12T05:16:38;39.81;32.40;47.95;;
66589;Laerm;53447;49.272;11.070;2023-02-12T05:19:03;38.57;33.19;48.69;;
66589;Laerm;53447;49.272;11.070;2023-02-12T05:21:29;38.93;31.94;53.34;;
66589;Laerm;53447;49.272;11.070;2023-02-12T05:23:54;41.56;37.96;43.37;;
66589;Laerm;53447;49.272;11.070;2023-02-12T05:26:20;41.61;38.53;43.54;;
66589;Laerm;53447;49.272;11.070;2023-02-12T05:28:46;42.15;36.71;49.97;;
66589;Laerm;53447;49.272;11.070;2023-02-12T05:31:15;40.41;34.70;43.70;;
66589;Laerm;53447;49.272;11.070;2023-02-12T05:33:42;38.27;33.19;45.07;;
66589;Laerm;53447;49.272;11.070;2023-02-12T05:36:09;38.22;32.81;41.69;;
66589;Laerm;53447;49.272;11.070;2023-02-12T05:38:35;37.86;31.43;41.59;;
66589;Laerm;53447;49.272;11.070;2023-02-12T05:41:04;38.48;32.40;54.07;;
66589;Laerm;53447;49.272;11.070;2023-02-12T05:43:30;42.50;34.16;57.70;;
66589;Laerm;53447;49.272;11.070;2023-02-12T05:45:57;44.93;39.64;60.12;;
66589;Laerm;53447;49.272;11.070;2023-02-12T05:48:22;42.12;37.71;57.10;;
66589;Laerm;53447;49.272;11.070;2023-02-12T05:50:49;40.51;33.54;55.24;;
66589;Laerm;53447;49.272;11.070;2023-02-12T05:53:14;39.89;33.86;45.37;;
66589;Laerm;53447;49.272;11.070;2023-02-12T05:55:39;47.40;35.19;67.85;;
66589;Laerm;53447;49.272;11.070;2023-02-12T05:58:05;52.75;35.19;73.13;;
66589;Laerm;53447;49.272;11.070;2023-02-12T06:00:30;49.29;36.02;69.34;;
66589;Laerm;53447;49.272;11.070;2023-02-12T06:02:55;45.49;34.16;67.86;;
66589;Laerm;53447;49.272;11.070;2023-02-12T06:05:20;42.24;39.39;52.48;;
66589;Laerm;53447;49.272;11.070;2023-02-12T06:07:46;42.37;38.42;54.32;;
66589;Laerm;53447;49.272;11.070;2023-02-12T06:10:11;50.34;38.42;70.47;;
66589;Laerm;53447;49.272;11.070;2023-02-12T06:12:36;51.21;36.02;68.28;;
66589;Laerm;53447;49.272;11.070;2023-02-12T06:15:01;49.19;36.68;62.23;;
66589;Laerm;53447;49.272;11.070;2023-02-12T06:17:27;49.27;37.31;62.54;;
66589;Laerm;53447;49.272;11.070;2023-02-12T06:19:52;46.98;37.45;59.84;;
66589;Laerm;53447;49.272;11.070;2023-02-12T06:22:17;50.64;37.58;64.00;;
66589;Laerm;53447;49.272;11.070;2023-02-12T06:24:42;52.74;37.96;65.89;;
66589;Laerm;53447;49.272;11.070;2023-02-12T06:27:08;53.16;40.79;65.71;;
66589;Laerm;53447;49.272;11.070;2023-02-12T06:29:33;53.97;40.59;67.22;;
66589;Laerm;53447;49.272;11.070;2023-02-12T06:31:58;50.05;37.84;63.39;;
66589;Laerm;53447;49.272;11.070;2023-02-12T06:34:23;54.62;38.08;68.44;;
66589;Laerm;53447;49.272;11.070;2023-02-12T06:36:49;52.40;37.17;65.28;;
66589;Laerm;53447;49.272;11.070;2023-02-12T06:39:15;54.00;37.17;68.65;;
66589;Laerm;53447;49.272;11.070;2023-02-12T06:41:40;46.38;33.54;65.57;;
66589;Laerm;53447;49.272;11.070;2023-02-12T06:44:06;46.19;35.19;60.34;;
66589;Laerm;53447;49.272;11.070;2023-02-12T06:46:31;45.80;39.30;68.07;;
66589;Laerm;53447;49.272;11.070;2023-02-12T06:48:57;50.19;40.03;63.34;;
66589;Laerm;53447;49.272;11.070;2023-02-12T06:51:24;47.67;36.38;62.68;;
66589;Laerm;53447;49.272;11.070;2023-02-12T06:53:50;52.74;35.41;68.77;;
66589;Laerm;53447;49.272;11.070;2023-02-12T06:56:15;48.32;35.82;64.25;;
66589;Laerm;53447;49.272;11.070;2023-02-12T06:58:41;49.69;37.71;63.60;;
66589;Laerm;53447;49.272;11.070;2023-02-12T07:01:14;47.52;37.02;67.27;;
66589;Laerm;53447;49.272;11.070;2023-02-12T07:03:42;51.79;35.82;70.47;;
66589;Laerm;53447;49.272;11.070;2023-02-12T07:06:08;46.96;37.58;67.15;;
66589;Laerm;53447;49.272;11.070;2023-02-12T07:08:33;50.96;38.63;71.02;;
66589;Laerm;53447;49.272;11.070;2023-02-12T07:10:59;52.47;39.48;72.40;;
66589;Laerm;53447;49.272;11.070;2023-02-12T07:13:24;52.83;34.95;72.39;;
66589;Laerm;53447;49.272;11.070;2023-02-12T07:15:49;51.59;36.02;65.75;;
66589;Laerm;53447;49.272;11.070;2023-02-12T07:18:14;52.31;36.71;72.04;;
66589;Laerm;53447;49.272;11.070;2023-02-12T07:20:40;47.85;37.17;63.35;;
66589;Laerm;53447;49.272;11.070;2023-02-12T07:23:05;51.11;37.31;74.08;;
66589;Laerm;53447;49.272;11.070;2023-02-12T07:25:30;52.54;38.42;64.86;;
66589;Laerm;53447;49.272;11.070;2023-02-12T07:27:56;53.26;40.85;68.39;;
66589;Laerm;53447;49.272;11.070;2023-02-12T07:30:21;52.16;39.30;64.58;;
66589;Laerm;53447;49.272;11.070;2023-02-12T07:32:46;52.68;35.82;66.90;;
66589;Laerm;53447;49.272;11.070;2023-02-12T07:35:11;50.88;35.41;68.72;;
66589;Laerm;53447;49.272;11.070;2023-02-12T07:37:37;46.20;35.19;62.46;;
66589;Laerm;53447;49.272;11.070;2023-02-12T07:40:02;50.52;36.02;64.03;;
66589;Laerm;53447;49.272;11.070;2023-02-12T07:42:27;53.71;37.02;73.40;;
66589;Laerm;53447;49.272;11.070;2023-02-12T07:44:54;45.98;36.55;61.39;;
66589;Laerm;53447;49.272;11.070;2023-02-12T07:47:19;52.04;35.82;70.61;;
66589;Laerm;53447;49.272;11.070;2023-02-12T07:49:44;46.74;39.64;61.57;;
66589;Laerm;53447;49.272;11.070;2023-02-12T07:52:11;44.48;39.12;58.67;;
66589;Laerm;53447;49.272;11.070;2023-02-12T07:54:36;52.75;37.71;73.12;;
66589;Laerm;53447;49.272;11.070;2023-02-12T07:57:01;47.14;36.38;67.42;;
66589;Laerm;53447;49.272;11.070;2023-02-12T07:59:26;46.99;35.82;64.37;;
66589;Laerm;53447;49.272;11.070;2023-02-12T08:01:52;51.10;35.82;67.06;;
66589;Laerm;53447;49.272;11.070;2023-02-12T08:04:19;47.37;36.71;62.98;;
66589;Laerm;53447;49.272;11.070;2023-02-12T08:06:45;47.54;36.87;62.56;;
66589;Laerm;53447;49.272;11.070;2023-02-12T08:09:12;48.82;39.12;66.55;;
66589;Laerm;53447;49.272;11.070;2023-02-12T08:11:38;45.14;38.53;64.30;;
66589;Laerm;53447;49.272;11.070;2023-02-12T08:14:04;46.09;35.82;59.04;;
66589;Laerm;53447;49.272;11.070;2023-02-12T08:16:29;50.72;36.38;71.76;;
66589;Laerm;53447;49.272;11.070;2023-02-12T08:18:55;50.20;37.84;65.75;;
66589;Laerm;53447;49.272;11.070;2023-02-12T08:21:25;47.92;36.87;61.55;;
66589;Laerm;53447;49.272;11.070;2023-02-12T08:23:52;46.65;35.62;63.61;;
66589;Laerm;53447;49.272;11.070;2023-02-12T08:26:24;48.06;35.82;60.33;;
66589;Laerm;53447;49.272;11.070;2023-02-12T08:28:57;52.92;35.19;81.21;;
66589;Laerm;53447;49.272;11.070;2023-02-12T08:31:24;51.71;38.83;69.48;;
66589;Laerm;53447;49.272;11.070;2023-02-12T08:33:50;47.24;36.71;66.58;;
66589;Laerm;53447;49.272;11.070;2023-02-12T08:36:20;45.75;35.41;61.10;;
66589;Laerm;53447;49.272;11.070;2023-02-12T08:38:46;44.39;35.82;64.52;;
66589;Laerm;53447;49.272;11.070;2023-02-12T08:41:13;52.63;37.02;80.81;;
66589;Laerm;53447;49.272;11.070;2023-02-12T08:43:39;46.48;36.20;63.81;;
66589;Laerm;53447;49.272;11.070;2023-02-12T08:46:16;50.16;36.68;66.36;;
66589;Laerm;53447;49.272;11.070;2023-02-12T08:48:41;51.49;44.70;62.89;;
66589;Laerm;53447;49.272;11.070;2023-02-12T08:51:17;51.26;39.12;67.00;;
66589;Laerm;53447;49.272;11.070;2023-02-12T08:53:43;48.60;36.71;65.50;;
66589;Laerm;53447;49.272;11.070;2023-02-12T08:56:09;48.05;37.84;62.45;;
66589;Laerm;53447;49.272;11.070;2023-02-12T08:58:35;48.31;36.38;64.02;;
66589;Laerm;53447;49.272;11.070;2023-02-12T09:01:01;49.84;38.42;65.80;;
66589;Laerm;53447;49.272;11.070;2023-02-12T09:03:26;54.20;36.38;68.28;;
66589;Laerm;53447;49.272;11.070;2023-02-12T09:05:52;47.00;34.44;64.43;;
66589;Laerm;53447;49.272;11.070;2023-02-12T09:08:17;53.20;36.02;73.14;;
66589;Laerm;53447;49.272;11.070;2023-02-12T09:10:43;44.87;37.17;65.72;;
66589;Laerm;53447;49.272;11.070;2023-02-12T09:13:09;44.73;38.63;55.89;;
66589;Laerm;53447;49.272;11.070;2023-02-12T09:15:38;43.65;38.42;59.60;;
66589;Laerm;53447;49.272;11.070;2023-02-12T09:18:03;46.48;36.38;64.42;;
66589;Laerm;53447;49.272;11.070;2023-02-12T09:20:29;46.53;36.02;62.68;;
66589;Laerm;53447;49.272;11.070;2023-02-12T09:22:54;44.04;35.62;61.04;;
66589;Laerm;53447;49.272;11.070;2023-02-12T09:25:20;46.20;36.20;61.33;;
66589;Laerm;53447;49.272;11.070;2023-02-12T09:27:45;45.59;35.62;61.48;;
66589;Laerm;53447;49.272;11.070;2023-02-12T09:30:10;43.63;34.44;58.42;;
66589;Laerm;53447;49.272;11.070;2023-02-12T09:32:36;43.98;38.08;61.19;;
66589;Laerm;53447;49.272;11.070;2023-02-12T09:35:01;41.84;33.86;49.99;;
66589;Laerm;53447;49.272;11.070;2023-02-12T09:37:26;42.02;35.62;61.02;;
66589;Laerm;53447;49.272;11.070;2023-02-12T09:39:52;46.25;35.41;58.84;;
66589;Laerm;53447;49.272;11.070;2023-02-12T09:42:24;41.65;34.16;56.58;;
66589;Laerm;53447;49.272;11.070;2023-02-12T09:47:26;43.18;34.16;61.10;;
66589;Laerm;53447;49.272;11.070;2023-02-12T09:50:10;47.87;36.02;62.55;;
66589;Laerm;53447;49.272;11.070;2023-02-12T09:52:37;46.81;38.93;60.52;;
66589;Laerm;53447;49.272;11.070;2023-02-12T09:55:03;46.05;36.55;59.55;;
66589;Laerm;53447;49.272;11.070;2023-02-12T09:57:32;51.22;37.17;69.03;;
66589;Laerm;53447;49.272;11.070;2023-02-12T10:00:18;44.41;33.54;61.86;;
66589;Laerm;53447;49.272;11.070;2023-02-12T10:03:01;44.74;35.82;59.12;;
66589;Laerm;53447;49.272;11.070;2023-02-12T10:05:31;44.28;36.02;63.10;;
66589;Laerm;53447;49.272;11.070;2023-02-12T10:16:11;50.83;34.44;70.94;;
66589;Laerm;53447;49.272;11.070;2023-02-12T10:26:21;51.13;37.02;65.05;;
66589;Laerm;53447;49.272;11.070;2023-02-12T10:28:49;45.90;36.02;63.92;;
66589;Laerm;53447;49.272;11.070;2023-02-12T10:31:23;46.76;36.20;65.64;;
66589;Laerm;53447;49.272;11.070;2023-02-12T10:33:51;45.21;39.21;59.63;;
66589;Laerm;53447;49.272;11.070;2023-02-12T10:39:21;42.08;34.95;54.95;;
66589;Laerm;53447;49.272;11.070;2023-02-12T10:42:02;53.97;37.31;73.09;;
66589;Laerm;53447;49.272;11.070;2023-02-12T10:44:30;46.72;35.41;65.89;;
66589;Laerm;53447;49.272;11.070;2023-02-12T10:46:55;40.68;34.44;58.58;;
66589;Laerm;53447;49.272;11.070;2023-02-12T10:49:21;40.41;33.86;52.73;;
66589;Laerm;53447;49.272;11.070;2023-02-12T10:51:57;42.02;35.41;53.03;;
66589;Laerm;53447;49.272;11.070;2023-02-12T10:56:56;45.23;36.68;59.29;;
66589;Laerm;53447;49.272;11.070;2023-02-12T10:59:22;52.07;36.87;70.09;;
66589;Laerm;53447;49.272;11.070;2023-02-12T11:01:47;46.17;40.53;56.96;;
66589;Laerm;53447;49.272;11.070;2023-02-12T11:04:20;46.47;36.20;61.76;;
66589;Laerm;53447;49.272;11.070;2023-02-12T11:07:02;50.06;36.20;67.79;;
66589;Laerm;53447;49.272;11.070;2023-02-12T11:09:39;45.95;36.20;64.91;;
66589;Laerm;53447;49.272;11.070;2023-02-12T11:15:00;42.59;36.02;55.41;;
66589;Laerm;53447;49.272;11.070;2023-02-12T11:17:35;42.40;38.53;60.66;;
66589;Laerm;53447;49.272;11.070;2023-02-12T11:20:22;52.50;34.70;71.15;;
66589;Laerm;53447;49.272;11.070;2023-02-12T11:22:59;45.59;36.20;61.47;;
66589;Laerm;53447;49.272;11.070;2023-02-12T11:25:25;45.64;37.58;58.38;;
66589;Laerm;53447;49.272;11.070;2023-02-12T11:28:05;47.88;37.17;63.28;;
66589;Laerm;53447;49.272;11.070;2023-02-12T11:30:36;48.45;37.02;58.23;;
66589;Laerm;53447;49.272;11.070;2023-02-12T11:33:16;49.33;39.03;58.56;;
66589;Laerm;53447;49.272;11.070;2023-02-12T11:36:18;45.18;35.19;58.44;;
66589;Laerm;53447;49.272;11.070;2023-02-12T11:38:37;48.70;34.95;63.11;;
66589;Laerm;53447;49.272;11.070;2023-02-12T11:41:07;45.20;38.42;63.97;;
66589;Laerm;53447;49.272;11.070;2023-02-12T11:43:42;54.84;38.31;75.88;;
66589;Laerm;53447;49.272;11.070;2023-02-12T11:46:07;57.22;34.70;75.25;;
66589;Laerm;53447;49.272;11.070;2023-02-12T11:48:39;40.95;34.95;57.66;;
66589;Laerm;53447;49.272;11.070;2023-02-12T11:51:06;40.63;34.16;50.72;;
66589;Laerm;53447;49.272;11.070;2023-02-12T11:53:37;41.29;33.86;57.82;;
66589;Laerm;53447;49.272;11.070;2023-02-12T11:56:09;42.06;35.19;58.31;;
66589;Laerm;53447;49.272;11.070;2023-02-12T11:58:35;43.30;34.70;59.47;;
66589;Laerm;53447;49.272;11.070;2023-02-12T12:01:04;42.46;33.19;58.63;;
66589;Laerm;53447;49.272;11.070;2023-02-12T12:08:44;40.29;33.19;45.54;;
66589;Laerm;53447;49.272;11.070;2023-02-12T12:11:17;55.32;35.19;73.26;;
66589;Laerm;53447;49.272;11.070;2023-02-12T12:13:49;42.06;34.95;57.36;;
66589;Laerm;53447;49.272;11.070;2023-02-12T12:16:30;51.33;39.48;69.77;;
66589;Laerm;53447;49.272;11.070;2023-02-12T12:19:25;45.02;36.38;60.06;;
66589;Laerm;53447;49.272;11.070;2023-02-12T12:24:56;54.42;35.19;82.29;;
66589;Laerm;53447;49.272;11.070;2023-02-12T12:30:14;43.50;38.31;61.73;;
66589;Laerm;53447;49.272;11.070;2023-02-12T12:32:42;50.39;38.42;68.07;;
66589;Laerm;53447;49.272;11.070;2023-02-12T12:35:10;40.52;34.44;56.13;;
66589;Laerm;53447;49.272;11.070;2023-02-12T12:37:46;41.98;35.82;56.67;;
66589;Laerm;53447;49.272;11.070;2023-02-12T12:43:10;49.60;36.71;65.05;;
66589;Laerm;53447;49.272;11.070;2023-02-12T12:45:59;48.68;36.71;64.55;;
66589;Laerm;53447;49.272;11.070;2023-02-12T12:48:39;50.81;34.95;70.24;;
66589;Laerm;53447;49.272;11.070;2023-02-12T12:57:05;44.56;36.38;57.94;;
66589;Laerm;53447;49.272;11.070;2023-02-12T12:59:47;47.25;39.30;62.71;;
66589;Laerm;53447;49.272;11.070;2023-02-12T13:10:41;48.29;36.87;64.31;;
66589;Laerm;53447;49.272;11.070;2023-02-12T13:20:49;43.80;37.17;59.28;;
66589;Laerm;53447;49.272;11.070;2023-02-12T13:23:17;48.36;38.63;63.27;;
66589;Laerm;53447;49.272;11.070;2023-02-12T13:28:33;49.61;38.31;63.91;;
66589;Laerm;53447;49.272;11.070;2023-02-12T13:31:00;51.02;39.88;65.96;;
66589;Laerm;53447;49.272;11.070;2023-02-12T13:33:27;50.74;38.93;65.89;;
66589;Laerm;53447;49.272;11.070;2023-02-12T13:35:59;49.33;37.31;65.21;;
66589;Laerm;53447;49.272;11.070;2023-02-12T13:38:27;48.98;37.31;65.06;;
66589;Laerm;53447;49.272;11.070;2023-02-12T13:40:57;52.62;38.95;69.24;;
66589;Laerm;53447;49.272;11.070;2023-02-12T13:43:31;50.93;36.20;64.31;;
66589;Laerm;53447;49.272;11.070;2023-02-12T13:46:22;51.42;37.31;66.90;;
66589;Laerm;53447;49.272;11.070;2023-02-12T13:48:52;48.60;38.07;64.69;;
66589;Laerm;53447;49.272;11.070;2023-02-12T13:54:08;47.71;37.71;65.02;;
66589;Laerm;53447;49.272;11.070;2023-02-12T14:01:51;58.30;38.18;82.62;;
66589;Laerm;53447;49.272;11.070;2023-02-12T14:06:57;44.73;34.70;61.80;;
66589;Laerm;53447;49.272;11.070;2023-02-12T14:09:28;42.35;36.87;54.90;;
66589;Laerm;53447;49.272;11.070;2023-02-12T14:11:54;43.04;38.93;63.46;;
66589;Laerm;53447;49.272;11.070;2023-02-12T14:14:30;42.35;37.84;50.20;;
66589;Laerm;53447;49.272;11.070;2023-02-12T14:16:56;40.71;33.54;56.46;;
66589;Laerm;53447;49.272;11.070;2023-02-12T14:19:38;52.70;34.95;72.77;;
66589;Laerm;53447;49.272;11.070;2023-02-12T14:22:12;43.68;35.41;61.23;;
66589;Laerm;53447;49.272;11.070;2023-02-12T14:24:54;45.35;34.16;58.94;;
66589;Laerm;53447;49.272;11.070;2023-02-12T14:30:36;43.98;36.20;57.55;;
66589;Laerm;53447;49.272;11.070;2023-02-12T14:37:56;46.96;40.25;61.31;;
66589;Laerm;53447;49.272;11.070;2023-02-12T14:43:00;44.58;36.87;58.46;;
66589;Laerm;53447;49.272;11.070;2023-02-12T14:45:27;46.23;33.86;60.83;;
66589;Laerm;53447;49.272;11.070;2023-02-12T14:47:52;44.64;38.42;58.74;;
66589;Laerm;53447;49.272;11.070;2023-02-12T14:52:48;43.76;38.73;54.78;;
66589;Laerm;53447;49.272;11.070;2023-02-12T14:55:26;51.97;36.20;71.32;;
66589;Laerm;53447;49.272;11.070;2023-02-12T14:57:56;45.90;35.62;62.53;;
66589;Laerm;53447;49.272;11.070;2023-02-12T15:00:24;45.03;37.37;60.45;;
66589;Laerm;53447;49.272;11.070;2023-02-12T15:03:12;42.85;39.88;54.87;;
66589;Laerm;53447;49.272;11.070;2023-02-12T15:05:41;47.00;37.17;66.15;;
66589;Laerm;53447;49.272;11.070;2023-02-12T15:10:49;42.89;35.62;63.90;;
66589;Laerm;53447;49.272;11.070;2023-02-12T15:13:23;40.22;35.62;53.33;;
66589;Laerm;53447;49.272;11.070;2023-02-12T15:23:43;42.87;36.02;54.96;;
66589;Laerm;53447;49.272;11.070;2023-02-12T15:26:19;55.27;38.83;80.01;;
66589;Laerm;53447;49.272;11.070;2023-02-12T15:28:46;49.25;40.46;62.37;;
66589;Laerm;53447;49.272;11.070;2023-02-12T15:31:14;56.55;39.72;74.20;;
66589;Laerm;53447;49.272;11.070;2023-02-12T15:33:45;52.64;38.53;67.21;;
66589;Laerm;53447;49.272;11.070;2023-02-12T15:36:14;50.42;36.87;64.93;;
66589;Laerm;53447;49.272;11.070;2023-02-12T15:38:41;53.01;39.21;73.81;;
66589;Laerm;53447;49.272;11.070;2023-02-12T15:41:07;47.12;36.02;62.14;;
66589;Laerm;53447;49.272;11.070;2023-02-12T15:43:34;53.00;37.73;71.60;;
66589;Laerm;53447;49.272;11.070;2023-02-12T15:46:04;46.02;36.71;60.01;;
66589;Laerm;53447;49.272;11.070;2023-02-12T15:48:32;46.32;37.31;58.12;;
66589;Laerm;53447;49.272;11.070;2023-02-12T15:53:30;49.93;40.53;64.99;;
66589;Laerm;53447;49.272;11.070;2023-02-12T15:55:56;52.11;38.31;69.59;;
66589;Laerm;53447;49.272;11.070;2023-02-12T15:58:26;47.01;38.20;63.02;;
66589;Laerm;53447;49.272;11.070;2023-02-12T16:00:53;48.09;35.41;62.57;;